sensor_id;sensor_type;location;lat;lon;timestamp;temperature;humidity
23755;DHT22;12057;52.042;6.830;2023-08-01T00:01:48;19.80;99.90
23755;DHT22;12057;52.042;6.830;2023-08-01T00:06:49;19.70;99.90
23755;DHT22;12057;52.042;6.830;2023-08-01T00:11:49;19.60;99.90
23755;DHT22;12057;52.042;6.830;2023-08-01T00:16:51;19.70;99.90
23755;DHT22;12057;52.042;6.830;2023-08-01T00:21:52;19.60;99.90
23755;DHT22;12057;52.042;6.830;2023-08-01T00:26:52;19.60;99.90
23755;DHT22;12057;52.042;6.830;2023-08-01T00:31:56;19.70;99.90
23755;DHT22;12057;52.042;6.830;2023-08-01T00:36:59;19.70;99.90
23755;DHT22;12057;52.042;6.830;2023-08-01T00:42:00;19.80;99.90
23755;DHT22;12057;52.042;6.830;2023-08-01T00:47:01;19.70;99.90
23755;DHT22;12057;52.042;6.830;2023-08-01T00:52:02;19.80;99.90
23755;DHT22;12057;52.042;6.830;2023-08-01T00:57:04;19.90;99.90
23755;DHT22;12057;52.042;6.830;2023-08-01T01:02:05;19.90;99.90
23755;DHT22;12057;52.042;6.830;2023-08-01T01:07:06;19.90;99.90
23755;DHT22;12057;52.042;6.830;2023-08-01T01:12:07;19.70;99.90
23755;DHT22;12057;52.042;6.830;2023-08-01T01:17:08;19.70;99.90
23755;DHT22;12057;52.042;6.830;2023-08-01T01:22:10;19.70;99.90
23755;DHT22;12057;52.042;6.830;2023-08-01T01:27:12;19.80;99.90
23755;DHT22;12057;52.042;6.830;2023-08-01T01:32:13;19.90;99.90
23755;DHT22;12057;52.042;6.830;2023-08-01T01:37:14;19.70;99.90
23755;DHT22;12057;52.042;6.830;2023-08-01T01:42:15;19.60;99.90
23755;DHT22;12057;52.042;6.830;2023-08-01T01:47:17;19.60;99.90
23755;DHT22;12057;52.042;6.830;2023-08-01T01:52:18;19.50;99.90
23755;DHT22;12057;52.042;6.830;2023-08-01T01:57:18;19.70;99.90
23755;DHT22;12057;52.042;6.830;2023-08-01T02:02:19;19.70;99.90
23755;DHT22;12057;52.042;6.830;2023-08-01T02:07:20;19.60;99.90
23755;DHT22;12057;52.042;6.830;2023-08-01T02:12:21;19.40;99.90
23755;DHT22;12057;52.042;6.830;2023-08-01T02:17:21;19.30;99.90
23755;DHT22;12057;52.042;6.830;2023-08-01T02:22:24;19.40;99.90
23755;DHT22;12057;52.042;6.830;2023-08-01T02:27:25;19.30;99.90
23755;DHT22;12057;52.042;6.830;2023-08-01T02:32:26;19.30;99.90
23755;DHT22;12057;52.042;6.830;2023-08-01T02:37:26;19.30;99.90
23755;DHT22;12057;52.042;6.830;2023-08-01T02:42:27;19.30;99.90
23755;DHT22;12057;52.042;6.830;2023-08-01T02:47:28;19.40;99.90
23755;DHT22;12057;52.042;6.830;2023-08-01T02:52:29;19.40;99.90
23755;DHT22;12057;52.042;6.830;2023-08-01T02:57:33;19.10;99.90
23755;DHT22;12057;52.042;6.830;2023-08-01T03:02:34;18.90;99.90
23755;DHT22;12057;52.042;6.830;2023-08-01T03:07:35;19.00;99.90
23755;DHT22;12057;52.042;6.830;2023-08-01T03:12:36;19.10;99.90
23755;DHT22;12057;52.042;6.830;2023-08-01T03:17:36;18.70;99.90
23755;DHT22;12057;52.042;6.830;2023-08-01T03:22:38;18.70;99.90
23755;DHT22;12057;52.042;6.830;2023-08-01T03:27:40;18.70;99.90
23755;DHT22;12057;52.042;6.830;2023-08-01T03:32:41;18.70;99.90
23755;DHT22;12057;52.042;6.830;2023-08-01T03:37:41;18.80;99.90
23755;DHT22;12057;52.042;6.830;2023-08-01T03:42:42;18.70;99.90
23755;DHT22;12057;52.042;6.830;2023-08-01T03:47:44;18.70;99.90
23755;DHT22;12057;52.042;6.830;2023-08-01T03:52:45;18.40;99.90
23755;DHT22;12057;52.042;6.830;2023-08-01T03:57:45;18.60;99.90
23755;DHT22;12057;52.042;6.830;2023-08-01T04:02:46;18.40;99.90
23755;DHT22;12057;52.042;6.830;2023-08-01T04:07:47;18.30;99.90
23755;DHT22;12057;52.042;6.830;2023-08-01T04:12:48;18.50;99.90
23755;DHT22;12057;52.042;6.830;2023-08-01T04:17:49;18.60;99.90
23755;DHT22;12057;52.042;6.830;2023-08-01T04:22:50;18.40;99.90
23755;DHT22;12057;52.042;6.830;2023-08-01T04:27:50;18.40;99.90
23755;DHT22;12057;52.042;6.830;2023-08-01T04:32:51;18.60;99.90
23755;DHT22;12057;52.042;6.830;2023-08-01T04:37:52;18.70;99.90
23755;DHT22;12057;52.042;6.830;2023-08-01T04:42:53;18.50;99.90
23755;DHT22;12057;52.042;6.830;2023-08-01T04:47:57;18.70;99.90
23755;DHT22;12057;52.042;6.830;2023-08-01T04:52:58;18.40;99.90
23755;DHT22;12057;52.042;6.830;2023-08-01T04:57:58;18.80;99.90
23755;DHT22;12057;52.042;6.830;2023-08-01T05:02:59;18.70;99.90
23755;DHT22;12057;52.042;6.830;2023-08-01T05:08:00;18.80;99.90
23755;DHT22;12057;52.042;6.830;2023-08-01T05:13:01;18.40;99.90
23755;DHT22;12057;52.042;6.830;2023-08-01T05:18:06;18.30;99.90
23755;DHT22;12057;52.042;6.830;2023-08-01T05:23:06;18.50;99.90
23755;DHT22;12057;52.042;6.830;2023-08-01T05:28:07;18.40;99.90
23755;DHT22;12057;52.042;6.830;2023-08-01T05:33:08;18.60;99.90
23755;DHT22;12057;52.042;6.830;2023-08-01T05:38:09;18.50;99.90
23755;DHT22;12057;52.042;6.830;2023-08-01T05:43:09;18.40;99.90
23755;DHT22;12057;52.042;6.830;2023-08-01T05:48:10;18.50;99.90
23755;DHT22;12057;52.042;6.830;2023-08-01T05:53:11;18.70;99.90
23755;DHT22;12057;52.042;6.830;2023-08-01T05:58:12;18.60;99.90
23755;DHT22;12057;52.042;6.830;2023-08-01T06:03:13;18.40;99.90
23755;DHT22;12057;52.042;6.830;2023-08-01T06:08:16;18.50;99.90
23755;DHT22;12057;52.042;6.830;2023-08-01T06:13:17;18.40;99.90
23755;DHT22;12057;52.042;6.830;2023-08-01T06:18:18;18.40;99.90
23755;DHT22;12057;52.042;6.830;2023-08-01T06:23:19;18.40;99.90
23755;DHT22;12057;52.042;6.830;2023-08-01T06:28:20;18.40;99.90
23755;DHT22;12057;52.042;6.830;2023-08-01T06:33:21;18.60;99.90
23755;DHT22;12057;52.042;6.830;2023-08-01T06:38:22;19.00;99.90
23755;DHT22;12057;52.042;6.830;2023-08-01T06:43:22;19.10;99.90
23755;DHT22;12057;52.042;6.830;2023-08-01T06:48:25;19.00;99.90
23755;DHT22;12057;52.042;6.830;2023-08-01T06:53:27;19.10;99.90
23755;DHT22;12057;52.042;6.830;2023-08-01T06:58:28;19.60;99.90
23755;DHT22;12057;52.042;6.830;2023-08-01T07:03:28;19.40;99.90
23755;DHT22;12057;52.042;6.830;2023-08-01T07:08:29;19.20;99.90
23755;DHT22;12057;52.042;6.830;2023-08-01T07:13:30;19.10;99.90
23755;DHT22;12057;52.042;6.830;2023-08-01T07:18:31;19.10;99.90
23755;DHT22;12057;52.042;6.830;2023-08-01T07:23:34;19.30;99.90
23755;DHT22;12057;52.042;6.830;2023-08-01T07:28:36;19.50;99.90
23755;DHT22;12057;52.042;6.830;2023-08-01T07:33:36;19.60;99.90
23755;DHT22;12057;52.042;6.830;2023-08-01T07:38:38;19.30;99.90
23755;DHT22;12057;52.042;6.830;2023-08-01T07:43:39;19.20;99.90
23755;DHT22;12057;52.042;6.830;2023-08-01T07:48:39;19.50;99.90
23755;DHT22;12057;52.042;6.830;2023-08-01T07:53:40;19.50;99.90
23755;DHT22;12057;52.042;6.830;2023-08-01T07:58:41;19.20;99.90
23755;DHT22;12057;52.042;6.830;2023-08-01T08:03:42;19.50;99.90
23755;DHT22;12057;52.042;6.830;2023-08-01T08:08:42;20.10;99.90
23755;DHT22;12057;52.042;6.830;2023-08-01T08:13:43;20.30;99.90
23755;DHT22;12057;52.042;6.830;2023-08-01T08:18:44;20.40;99.90
23755;DHT22;12057;52.042;6.830;2023-08-01T08:23:45;20.00;99.90
23755;DHT22;12057;52.042;6.830;2023-08-01T08:28:45;20.20;99.90
23755;DHT22;12057;52.042;6.830;2023-08-01T08:33:46;19.90;99.90
23755;DHT22;12057;52.042;6.830;2023-08-01T08:38:47;20.40;99.90
23755;DHT22;12057;52.042;6.830;2023-08-01T08:43:49;20.50;99.90
23755;DHT22;12057;52.042;6.830;2023-08-01T08:48:50;20.60;99.90
23755;DHT22;12057;52.042;6.830;2023-08-01T08:53:53;20.80;99.90
23755;DHT22;12057;52.042;6.830;2023-08-01T08:58:55;21.40;99.90
23755;DHT22;12057;52.042;6.830;2023-08-01T09:03:56;21.90;99.90
23755;DHT22;12057;52.042;6.830;2023-08-01T09:09:16;22.10;99.90
23755;DHT22;12057;52.042;6.830;2023-08-01T09:14:17;21.60;99.90
23755;DHT22;12057;52.042;6.830;2023-08-01T09:19:20;21.80;99.90
23755;DHT22;12057;52.042;6.830;2023-08-01T09:24:21;21.50;99.90
23755;DHT22;12057;52.042;6.830;2023-08-01T09:29:22;20.80;99.90
23755;DHT22;12057;52.042;6.830;2023-08-01T09:34:25;21.20;99.90
23755;DHT22;12057;52.042;6.830;2023-08-01T09:39:26;21.10;99.90
23755;DHT22;12057;52.042;6.830;2023-08-01T09:44:28;20.10;99.90
23755;DHT22;12057;52.042;6.830;2023-08-01T09:49:29;19.70;99.90
23755;DHT22;12057;52.042;6.830;2023-08-01T09:54:30;19.80;99.90
23755;DHT22;12057;52.042;6.830;2023-08-01T09:59:31;20.00;99.90
23755;DHT22;12057;52.042;6.830;2023-08-01T10:04:34;20.80;99.90
23755;DHT22;12057;52.042;6.830;2023-08-01T10:09:37;21.10;99.90
23755;DHT22;12057;52.042;6.830;2023-08-01T10:14:39;20.80;99.90
23755;DHT22;12057;52.042;6.830;2023-08-01T10:19:42;20.80;99.90
23755;DHT22;12057;52.042;6.830;2023-08-01T10:24:43;20.70;99.90
23755;DHT22;12057;52.042;6.830;2023-08-01T10:29:44;20.90;99.90
23755;DHT22;12057;52.042;6.830;2023-08-01T10:34:52;21.00;99.90
23755;DHT22;12057;52.042;6.830;2023-08-01T10:39:57;21.20;99.90
23755;DHT22;12057;52.042;6.830;2023-08-01T10:44:59;21.20;99.90
23755;DHT22;12057;52.042;6.830;2023-08-01T10:49:59;21.20;99.90
23755;DHT22;12057;52.042;6.830;2023-08-01T10:55:02;22.00;99.90
23755;DHT22;12057;52.042;6.830;2023-08-01T11:00:05;22.10;99.90
23755;DHT22;12057;52.042;6.830;2023-08-01T11:05:12;22.10;99.90
23755;DHT22;12057;52.042;6.830;2023-08-01T11:10:14;21.10;99.90
23755;DHT22;12057;52.042;6.830;2023-08-01T11:15:15;20.70;99.90
23755;DHT22;12057;52.042;6.830;2023-08-01T11:20:16;20.60;99.90
23755;DHT22;12057;52.042;6.830;2023-08-01T11:25:17;20.80;99.90
23755;DHT22;12057;52.042;6.830;2023-08-01T11:30:18;21.00;99.90
23755;DHT22;12057;52.042;6.830;2023-08-01T11:35:19;20.70;99.90
23755;DHT22;12057;52.042;6.830;2023-08-01T11:40:20;20.80;99.90
23755;DHT22;12057;52.042;6.830;2023-08-01T11:45:21;21.20;99.90
23755;DHT22;12057;52.042;6.830;2023-08-01T11:50:23;21.10;99.90
23755;DHT22;12057;52.042;6.830;2023-08-01T11:55:27;20.80;99.90
23755;DHT22;12057;52.042;6.830;2023-08-01T12:00:29;20.90;99.90
23755;DHT22;12057;52.042;6.830;2023-08-01T12:05:30;21.30;99.90
23755;DHT22;12057;52.042;6.830;2023-08-01T12:10:57;22.00;99.90
23755;DHT22;12057;52.042;6.830;2023-08-01T12:15:58;22.20;99.90
23755;DHT22;12057;52.042;6.830;2023-08-01T12:20:59;21.90;99.90
23755;DHT22;12057;52.042;6.830;2023-08-01T12:25:59;21.70;99.90
23755;DHT22;12057;52.042;6.830;2023-08-01T12:31:00;21.80;99.90
23755;DHT22;12057;52.042;6.830;2023-08-01T12:36:02;22.50;99.90
23755;DHT22;12057;52.042;6.830;2023-08-01T12:41:04;22.60;99.90
23755;DHT22;12057;52.042;6.830;2023-08-01T12:46:04;22.50;99.90
23755;DHT22;12057;52.042;6.830;2023-08-01T12:51:05;22.40;99.90
23755;DHT22;12057;52.042;6.830;2023-08-01T12:56:06;22.10;99.90
23755;DHT22;12057;52.042;6.830;2023-08-01T13:01:07;23.00;99.90
23755;DHT22;12057;52.042;6.830;2023-08-01T13:06:11;22.60;99.90
23755;DHT22;12057;52.042;6.830;2023-08-01T13:11:13;22.40;99.90
23755;DHT22;12057;52.042;6.830;2023-08-01T13:16:14;23.10;99.90
23755;DHT22;12057;52.042;6.830;2023-08-01T13:21:15;22.90;99.90
23755;DHT22;12057;52.042;6.830;2023-08-01T13:26:16;22.60;99.90
23755;DHT22;12057;52.042;6.830;2023-08-01T13:31:17;22.10;99.90
23755;DHT22;12057;52.042;6.830;2023-08-01T13:36:18;22.50;99.90
23755;DHT22;12057;52.042;6.830;2023-08-01T13:41:19;22.20;99.90
23755;DHT22;12057;52.042;6.830;2023-08-01T13:46:20;22.00;99.90
23755;DHT22;12057;52.042;6.830;2023-08-01T13:51:20;22.00;99.90
23755;DHT22;12057;52.042;6.830;2023-08-01T13:56:21;21.70;99.90
23755;DHT22;12057;52.042;6.830;2023-08-01T14:01:22;22.10;99.90
23755;DHT22;12057;52.042;6.830;2023-08-01T14:06:23;22.30;99.90
23755;DHT22;12057;52.042;6.830;2023-08-01T14:11:39;22.30;99.90
23755;DHT22;12057;52.042;6.830;2023-08-01T14:16:40;22.80;99.90
23755;DHT22;12057;52.042;6.830;2023-08-01T14:21:40;23.70;99.90
23755;DHT22;12057;52.042;6.830;2023-08-01T14:26:44;24.30;99.90
23755;DHT22;12057;52.042;6.830;2023-08-01T14:31:45;24.30;99.90
23755;DHT22;12057;52.042;6.830;2023-08-01T14:36:46;24.20;99.90
23755;DHT22;12057;52.042;6.830;2023-08-01T14:41:46;24.50;99.90
23755;DHT22;12057;52.042;6.830;2023-08-01T14:46:47;23.80;99.90
23755;DHT22;12057;52.042;6.830;2023-08-01T14:51:48;23.50;99.90
23755;DHT22;12057;52.042;6.830;2023-08-01T14:56:52;23.20;99.90
23755;DHT22;12057;52.042;6.830;2023-08-01T15:01:52;23.10;99.90
23755;DHT22;12057;52.042;6.830;2023-08-01T15:06:53;22.50;99.90
23755;DHT22;12057;52.042;6.830;2023-08-01T15:11:54;22.00;99.90
23755;DHT22;12057;52.042;6.830;2023-08-01T15:16:55;21.80;99.90
23755;DHT22;12057;52.042;6.830;2023-08-01T15:21:55;22.10;99.90
23755;DHT22;12057;52.042;6.830;2023-08-01T15:26:56;21.70;99.90
23755;DHT22;12057;52.042;6.830;2023-08-01T15:31:57;21.80;99.90
23755;DHT22;12057;52.042;6.830;2023-08-01T15:36:58;22.00;99.90
23755;DHT22;12057;52.042;6.830;2023-08-01T15:41:59;21.90;99.90
23755;DHT22;12057;52.042;6.830;2023-08-01T15:46:59;22.20;99.90
23755;DHT22;12057;52.042;6.830;2023-08-01T15:52:00;22.40;99.90
23755;DHT22;12057;52.042;6.830;2023-08-01T15:57:01;22.80;99.90
23755;DHT22;12057;52.042;6.830;2023-08-01T16:02:02;23.00;99.90
23755;DHT22;12057;52.042;6.830;2023-08-01T16:07:03;22.70;99.90
23755;DHT22;12057;52.042;6.830;2023-08-01T16:12:04;22.20;99.90
23755;DHT22;12057;52.042;6.830;2023-08-01T16:17:05;22.10;99.90
23755;DHT22;12057;52.042;6.830;2023-08-01T16:22:06;21.80;99.90
23755;DHT22;12057;52.042;6.830;2023-08-01T16:27:10;22.00;99.90
23755;DHT22;12057;52.042;6.830;2023-08-01T16:32:10;22.10;99.90
23755;DHT22;12057;52.042;6.830;2023-08-01T16:37:11;21.80;99.90
23755;DHT22;12057;52.042;6.830;2023-08-01T16:42:12;21.80;99.90
23755;DHT22;12057;52.042;6.830;2023-08-01T16:47:17;21.80;99.90
23755;DHT22;12057;52.042;6.830;2023-08-01T16:52:21;22.20;99.90
23755;DHT22;12057;52.042;6.830;2023-08-01T16:57:22;22.00;99.90
23755;DHT22;12057;52.042;6.830;2023-08-01T17:02:23;21.80;99.90
23755;DHT22;12057;52.042;6.830;2023-08-01T17:07:24;21.90;99.90
23755;DHT22;12057;52.042;6.830;2023-08-01T17:12:24;21.60;99.90
23755;DHT22;12057;52.042;6.830;2023-08-01T17:17:25;21.20;99.90
23755;DHT22;12057;52.042;6.830;2023-08-01T17:22:26;21.00;99.90
23755;DHT22;12057;52.042;6.830;2023-08-01T17:27:27;21.10;99.90
23755;DHT22;12057;52.042;6.830;2023-08-01T17:32:28;20.70;99.90
23755;DHT22;12057;52.042;6.830;2023-08-01T17:37:29;20.60;99.90
23755;DHT22;12057;52.042;6.830;2023-08-01T17:42:29;20.00;99.90
23755;DHT22;12057;52.042;6.830;2023-08-01T17:47:30;19.80;99.90
23755;DHT22;12057;52.042;6.830;2023-08-01T17:52:32;19.60;99.90
23755;DHT22;12057;52.042;6.830;2023-08-01T17:57:36;19.50;99.90
23755;DHT22;12057;52.042;6.830;2023-08-01T18:02:36;19.40;99.90
23755;DHT22;12057;52.042;6.830;2023-08-01T18:07:37;19.60;99.90
23755;DHT22;12057;52.042;6.830;2023-08-01T18:12:38;19.50;99.90
23755;DHT22;12057;52.042;6.830;2023-08-01T18:17:39;19.60;99.90
23755;DHT22;12057;52.042;6.830;2023-08-01T18:22:40;19.80;99.90
23755;DHT22;12057;52.042;6.830;2023-08-01T18:27:41;19.70;99.90
23755;DHT22;12057;52.042;6.830;2023-08-01T18:32:41;19.90;99.90
23755;DHT22;12057;52.042;6.830;2023-08-01T18:37:42;20.20;99.90
23755;DHT22;12057;52.042;6.830;2023-08-01T18:42:43;20.20;99.90
23755;DHT22;12057;52.042;6.830;2023-08-01T18:47:44;20.10;99.90
23755;DHT22;12057;52.042;6.830;2023-08-01T18:52:46;20.10;99.90
23755;DHT22;12057;52.042;6.830;2023-08-01T18:57:50;20.20;99.90
23755;DHT22;12057;52.042;6.830;2023-08-01T19:02:51;20.10;99.90
23755;DHT22;12057;52.042;6.830;2023-08-01T19:07:52;20.10;99.90
23755;DHT22;12057;52.042;6.830;2023-08-01T19:12:53;20.10;99.90
23755;DHT22;12057;52.042;6.830;2023-08-01T19:17:54;19.90;99.90
23755;DHT22;12057;52.042;6.830;2023-08-01T19:22:54;19.90;99.90
23755;DHT22;12057;52.042;6.830;2023-08-01T19:27:55;19.90;99.90
23755;DHT22;12057;52.042;6.830;2023-08-01T19:32:56;19.90;99.90
23755;DHT22;12057;52.042;6.830;2023-08-01T19:37:57;19.80;99.90
23755;DHT22;12057;52.042;6.830;2023-08-01T19:42:58;19.90;99.90
23755;DHT22;12057;52.042;6.830;2023-08-01T19:47:58;19.90;99.90
23755;DHT22;12057;52.042;6.830;2023-08-01T19:52:59;19.80;99.90
23755;DHT22;12057;52.042;6.830;2023-08-01T19:58:03;19.70;99.90
23755;DHT22;12057;52.042;6.830;2023-08-01T20:03:04;19.80;99.90
23755;DHT22;12057;52.042;6.830;2023-08-01T20:08:05;19.80;99.90
23755;DHT22;12057;52.042;6.830;2023-08-01T20:13:05;19.90;99.90
23755;DHT22;12057;52.042;6.830;2023-08-01T20:18:06;19.90;99.90
23755;DHT22;12057;52.042;6.830;2023-08-01T20:23:07;19.90;99.90
23755;DHT22;12057;52.042;6.830;2023-08-01T20:28:08;19.90;99.90
23755;DHT22;12057;52.042;6.830;2023-08-01T20:33:09;19.70;99.90
23755;DHT22;12057;52.042;6.830;2023-08-01T20:38:10;19.70;99.90
23755;DHT22;12057;52.042;6.830;2023-08-01T20:43:11;19.60;99.90
23755;DHT22;12057;52.042;6.830;2023-08-01T20:48:12;19.60;99.90
23755;DHT22;12057;52.042;6.830;2023-08-01T20:53:13;19.60;99.90
23755;DHT22;12057;52.042;6.830;2023-08-01T20:58:13;19.60;99.90
23755;DHT22;12057;52.042;6.830;2023-08-01T21:03:16;19.60;99.90
23755;DHT22;12057;52.042;6.830;2023-08-01T21:08:17;19.60;99.90
23755;DHT22;12057;52.042;6.830;2023-08-01T21:13:18;19.70;99.90
23755;DHT22;12057;52.042;6.830;2023-08-01T21:18:18;19.60;99.90
23755;DHT22;12057;52.042;6.830;2023-08-01T21:23:19;19.70;99.90
23755;DHT22;12057;52.042;6.830;2023-08-01T21:28:20;19.70;99.90
23755;DHT22;12057;52.042;6.830;2023-08-01T21:33:21;19.60;99.90
23755;DHT22;12057;52.042;6.830;2023-08-01T21:38:22;19.60;99.90
23755;DHT22;12057;52.042;6.830;2023-08-01T21:43:22;19.50;99.90
23755;DHT22;12057;52.042;6.830;2023-08-01T21:48:23;19.60;99.90
23755;DHT22;12057;52.042;6.830;2023-08-01T21:53:24;19.70;99.90
23755;DHT22;12057;52.042;6.830;2023-08-01T21:58:25;19.70;99.90
23755;DHT22;12057;52.042;6.830;2023-08-01T22:03:26;19.70;99.90
23755;DHT22;12057;52.042;6.830;2023-08-01T22:08:27;19.70;99.90
23755;DHT22;12057;52.042;6.830;2023-08-01T22:13:35;19.50;99.90
23755;DHT22;12057;52.042;6.830;2023-08-01T22:18:42;19.60;99.90
23755;DHT22;12057;52.042;6.830;2023-08-01T22:23:46;19.60;99.90
23755;DHT22;12057;52.042;6.830;2023-08-01T22:28:50;19.50;99.90
23755;DHT22;12057;52.042;6.830;2023-08-01T22:33:57;19.50;99.90
23755;DHT22;12057;52.042;6.830;2023-08-01T22:38:59;19.40;99.90
23755;DHT22;12057;52.042;6.830;2023-08-01T22:44:06;19.50;99.90
23755;DHT22;12057;52.042;6.830;2023-08-01T22:49:17;19.40;99.90
23755;DHT22;12057;52.042;6.830;2023-08-01T22:54:20;19.30;99.90
23755;DHT22;12057;52.042;6.830;2023-08-01T22:59:26;19.30;99.90
23755;DHT22;12057;52.042;6.830;2023-08-01T23:04:34;19.10;99.90
23755;DHT22;12057;52.042;6.830;2023-08-01T23:09:41;19.20;99.90
23755;DHT22;12057;52.042;6.830;2023-08-01T23:14:47;18.90;99.90
23755;DHT22;12057;52.042;6.830;2023-08-01T23:19:53;18.90;99.90
23755;DHT22;12057;52.042;6.830;2023-08-01T23:24:56;18.90;99.90
23755;DHT22;12057;52.042;6.830;2023-08-01T23:30:01;18.70;99.90
23755;DHT22;12057;52.042;6.830;2023-08-01T23:35:20;18.70;99.90
23755;DHT22;12057;52.042;6.830;2023-08-01T23:40:33;18.70;99.90
23755;DHT22;12057;52.042;6.830;2023-08-01T23:45:53;18.80;99.90
23755;DHT22;12057;52.042;6.830;2023-08-01T23:50:59;18.70;99.90
23755;DHT22;12057;52.042;6.830;2023-08-01T23:56:10;18.70;99.90
